Terminal Aerodrome Forecast
Issued by NWS Grand Junction, CO

Current Version | Previous Version | Text Only | Print | Product List | Glossary On
Versions: 1 2 3 4 5 6 7 8 9 10 11 12 13 14 15 16 17 18 19 20 21 22 23 24 25 26 27 28 29 30 31
000
FTUS45 KGJT 260105 AAA
TAFGJT
TAF AMD
KGJT 260105Z 2601/2624 29008KT P6SM SCT110
     FM260200 36005KT P6SM SCT250
     FM260600 07005KT P6SM SCT250
     FM261500 13005KT P6SM SCT250
     FM261800 20005KT P6SM BKN250
     FM262000 29006KT P6SM BKN250=

USA.gov is the U.S. government's official web portal to all federal, state and local government web resources and services.